sensor_id;sensor_type;location;lat;lon;timestamp;pressure;altitude;pressure_sealevel;temperature;humidity
54022;BME280;39936;51.058;17.220;2023-02-24T00:03:07;101007.84;;;7.38;100.00
54022;BME280;39936;51.058;17.220;2023-02-24T00:07:18;101001.45;;;7.40;100.00
54022;BME280;39936;51.058;17.220;2023-02-24T00:11:28;100997.52;;;7.36;100.00
54022;BME280;39936;51.058;17.220;2023-02-24T00:14:54;100992.83;;;7.40;100.00
54022;BME280;39936;51.058;17.220;2023-02-24T00:22:28;100978.93;;;7.40;99.76
54022;BME280;39936;51.058;17.220;2023-02-24T00:26:25;100978.28;;;7.40;99.63
54022;BME280;39936;51.058;17.220;2023-02-24T00:30:05;100968.81;;;7.37;99.64
54022;BME280;39936;51.058;17.220;2023-02-24T00:33:53;100962.77;;;7.37;99.56
54022;BME280;39936;51.058;17.220;2023-02-24T00:37:49;100962.20;;;7.36;99.64
54022;BME280;39936;51.058;17.220;2023-02-24T00:41:18;100959.80;;;7.15;100.00
54022;BME280;39936;51.058;17.220;2023-02-24T00:45:28;100920.80;;;6.70;100.00
54022;BME280;39936;51.058;17.220;2023-02-24T00:50:06;100957.76;;;6.81;100.00
54022;BME280;39936;51.058;17.220;2023-02-24T00:53:33;100953.47;;;6.78;100.00
54022;BME280;39936;51.058;17.220;2023-02-24T00:57:38;100931.31;;;6.70;100.00
54022;BME280;39936;51.058;17.220;2023-02-24T01:01:04;100947.37;;;6.83;100.00
54022;BME280;39936;51.058;17.220;2023-02-24T01:05:14;100943.90;;;6.84;100.00
54022;BME280;39936;51.058;17.220;2023-02-24T01:08:51;100935.53;;;6.85;100.00
54022;BME280;39936;51.058;17.220;2023-02-24T01:12:48;100929.19;;;6.78;100.00
54022;BME280;39936;51.058;17.220;2023-02-24T01:16:20;100925.06;;;6.72;100.00
54022;BME280;39936;51.058;17.220;2023-02-24T01:19:48;100909.05;;;6.59;100.00
54022;BME280;39936;51.058;17.220;2023-02-24T01:23:33;100915.74;;;6.65;100.00
54022;BME280;39936;51.058;17.220;2023-02-24T01:27:46;100910.44;;;6.66;100.00
54022;BME280;39936;51.058;17.220;2023-02-24T01:31:47;100907.25;;;6.60;100.00
54022;BME280;39936;51.058;17.220;2023-02-24T01:35:10;100903.77;;;6.56;100.00
54022;BME280;39936;51.058;17.220;2023-02-24T01:39:22;100903.93;;;6.56;100.00
54022;BME280;39936;51.058;17.220;2023-02-24T01:51:17;100888.42;;;6.58;100.00
54022;BME280;39936;51.058;17.220;2023-02-24T01:54:52;100883.60;;;6.55;100.00
54022;BME280;39936;51.058;17.220;2023-02-24T01:58:52;100867.36;;;6.54;100.00
54022;BME280;39936;51.058;17.220;2023-02-24T02:02:42;100870.16;;;6.67;100.00
54022;BME280;39936;51.058;17.220;2023-02-24T02:06:25;100865.02;;;6.63;100.00
54022;BME280;39936;51.058;17.220;2023-02-24T02:10:40;100867.56;;;6.71;100.00
54022;BME280;39936;51.058;17.220;2023-02-24T02:18:33;100861.55;;;6.71;100.00
54022;BME280;39936;51.058;17.220;2023-02-24T02:34:06;100827.98;;;6.47;100.00
54022;BME280;39936;51.058;17.220;2023-02-24T02:41:56;100844.72;;;6.62;100.00
54022;BME280;39936;51.058;17.220;2023-02-24T02:45:51;100843.78;;;6.50;100.00
54022;BME280;39936;51.058;17.220;2023-02-24T02:49:41;100808.42;;;6.29;100.00
54022;BME280;39936;51.058;17.220;2023-02-24T02:58:23;100828.22;;;6.45;100.00
54022;BME280;39936;51.058;17.220;2023-02-24T03:02:04;100821.07;;;6.39;100.00
54022;BME280;39936;51.058;17.220;2023-02-24T03:10:10;100811.92;;;6.36;100.00
54022;BME280;39936;51.058;17.220;2023-02-24T03:14:32;100809.30;;;6.40;100.00
54022;BME280;39936;51.058;17.220;2023-02-24T03:19:03;100808.48;;;6.40;100.00
54022;BME280;39936;51.058;17.220;2023-02-24T03:22:53;100809.45;;;6.34;100.00
54022;BME280;39936;51.058;17.220;2023-02-24T03:26:30;100806.69;;;6.35;100.00
54022;BME280;39936;51.058;17.220;2023-02-24T03:34:04;100803.49;;;6.25;100.00
54022;BME280;39936;51.058;17.220;2023-02-24T03:37:26;100800.20;;;6.20;100.00
54022;BME280;39936;51.058;17.220;2023-02-24T03:41:13;100770.10;;;6.09;100.00
54022;BME280;39936;51.058;17.220;2023-02-24T03:49:10;100787.73;;;6.24;100.00
54022;BME280;39936;51.058;17.220;2023-02-24T04:05:02;100745.58;;;5.93;100.00
54022;BME280;39936;51.058;17.220;2023-02-24T04:20:02;100751.68;;;6.23;100.00
54022;BME280;39936;51.058;17.220;2023-02-24T04:23:44;100724.33;;;6.15;100.00
54022;BME280;39936;51.058;17.220;2023-02-24T04:27:19;100744.44;;;6.29;100.00
54022;BME280;39936;51.058;17.220;2023-02-24T04:30:47;100736.94;;;6.28;100.00
54022;BME280;39936;51.058;17.220;2023-02-24T04:34:11;100734.06;;;6.33;100.00
54022;BME280;39936;51.058;17.220;2023-02-24T04:38:23;100726.44;;;6.28;100.00
54022;BME280;39936;51.058;17.220;2023-02-24T04:42:31;100726.00;;;6.30;100.00
54022;BME280;39936;51.058;17.220;2023-02-24T04:46:15;100725.55;;;6.24;100.00
54022;BME280;39936;51.058;17.220;2023-02-24T04:50:03;100722.55;;;6.26;100.00
54022;BME280;39936;51.058;17.220;2023-02-24T04:54:01;100715.30;;;6.28;100.00
54022;BME280;39936;51.058;17.220;2023-02-24T04:57:54;100710.16;;;6.23;100.00
54022;BME280;39936;51.058;17.220;2023-02-24T05:01:17;100714.20;;;6.24;100.00
54022;BME280;39936;51.058;17.220;2023-02-24T05:05:08;100707.73;;;6.24;100.00
54022;BME280;39936;51.058;17.220;2023-02-24T05:08:32;100699.09;;;6.30;100.00
54022;BME280;39936;51.058;17.220;2023-02-24T05:12:57;100696.35;;;6.28;100.00
54022;BME280;39936;51.058;17.220;2023-02-24T05:16:50;100691.14;;;6.26;100.00
54022;BME280;39936;51.058;17.220;2023-02-24T05:20:54;100688.28;;;6.29;100.00
54022;BME280;39936;51.058;17.220;2023-02-24T05:24:48;100658.30;;;6.13;100.00
54022;BME280;39936;51.058;17.220;2023-02-24T05:28:47;100684.57;;;6.31;100.00
54022;BME280;39936;51.058;17.220;2023-02-24T05:32:38;100687.27;;;6.30;100.00
54022;BME280;39936;51.058;17.220;2023-02-24T05:36:20;100687.59;;;6.31;100.00
54022;BME280;39936;51.058;17.220;2023-02-24T05:39:42;100653.69;;;6.03;100.00
54022;BME280;39936;51.058;17.220;2023-02-24T05:43:08;100678.52;;;6.20;100.00
54022;BME280;39936;51.058;17.220;2023-02-24T05:47:04;100687.75;;;6.20;100.00
54022;BME280;39936;51.058;17.220;2023-02-24T05:50:51;100686.34;;;6.19;100.00
54022;BME280;39936;51.058;17.220;2023-02-24T05:54:50;100683.12;;;6.23;100.00
54022;BME280;39936;51.058;17.220;2023-02-24T06:02:33;100681.66;;;6.29;100.00
54022;BME280;39936;51.058;17.220;2023-02-24T06:06:51;100650.40;;;6.15;100.00
54022;BME280;39936;51.058;17.220;2023-02-24T06:10:47;100679.00;;;6.36;100.00
54022;BME280;39936;51.058;17.220;2023-02-24T06:18:51;100678.88;;;6.36;100.00
54022;BME280;39936;51.058;17.220;2023-02-24T06:22:43;100677.80;;;6.34;100.00
54022;BME280;39936;51.058;17.220;2023-02-24T06:26:40;100677.05;;;6.32;100.00
54022;BME280;39936;51.058;17.220;2023-02-24T06:30:29;100679.73;;;6.33;100.00
54022;BME280;39936;51.058;17.220;2023-02-24T06:34:28;100679.70;;;6.39;100.00
54022;BME280;39936;51.058;17.220;2023-02-24T06:37:47;100677.32;;;6.38;100.00
54022;BME280;39936;51.058;17.220;2023-02-24T06:41:37;100688.07;;;6.46;100.00
54022;BME280;39936;51.058;17.220;2023-02-24T06:45:41;100689.09;;;6.44;100.00
54022;BME280;39936;51.058;17.220;2023-02-24T06:49:23;100688.61;;;6.40;100.00
54022;BME280;39936;51.058;17.220;2023-02-24T06:52:54;100692.52;;;6.35;100.00
54022;BME280;39936;51.058;17.220;2023-02-24T06:56:45;100694.13;;;6.24;100.00
54022;BME280;39936;51.058;17.220;2023-02-24T07:00:50;100692.81;;;6.10;100.00
54022;BME280;39936;51.058;17.220;2023-02-24T07:04:42;100690.16;;;6.01;100.00
54022;BME280;39936;51.058;17.220;2023-02-24T07:08:32;100685.92;;;5.98;100.00
54022;BME280;39936;51.058;17.220;2023-02-24T07:11:59;100684.11;;;5.97;100.00
54022;BME280;39936;51.058;17.220;2023-02-24T07:15:25;100654.18;;;5.79;100.00
54022;BME280;39936;51.058;17.220;2023-02-24T07:19:00;100689.48;;;6.01;100.00
54022;BME280;39936;51.058;17.220;2023-02-24T07:22:33;100688.74;;;6.02;100.00
54022;BME280;39936;51.058;17.220;2023-02-24T07:25:57;100691.38;;;6.01;100.00
54022;BME280;39936;51.058;17.220;2023-02-24T07:29:24;100685.40;;;6.00;100.00
54022;BME280;39936;51.058;17.220;2023-02-24T07:33:10;100688.55;;;5.98;100.00
54022;BME280;39936;51.058;17.220;2023-02-24T07:36:52;100686.84;;;5.89;100.00
54022;BME280;39936;51.058;17.220;2023-02-24T07:40:45;100668.55;;;5.55;100.00
54022;BME280;39936;51.058;17.220;2023-02-24T07:44:11;100659.00;;;5.44;100.00
54022;BME280;39936;51.058;17.220;2023-02-24T07:48:02;100681.02;;;5.60;100.00
54022;BME280;39936;51.058;17.220;2023-02-24T07:51:27;100675.17;;;5.57;100.00
54022;BME280;39936;51.058;17.220;2023-02-24T07:54:46;100671.36;;;5.54;100.00
54022;BME280;39936;51.058;17.220;2023-02-24T07:58:09;100671.17;;;5.53;100.00
54022;BME280;39936;51.058;17.220;2023-02-24T08:01:51;100670.40;;;5.55;100.00
54022;BME280;39936;51.058;17.220;2023-02-24T08:05:33;100665.81;;;5.53;100.00
54022;BME280;39936;51.058;17.220;2023-02-24T08:08:58;100665.48;;;5.50;100.00
54022;BME280;39936;51.058;17.220;2023-02-24T08:12:47;100664.14;;;5.51;100.00
54022;BME280;39936;51.058;17.220;2023-02-24T08:16:12;100663.91;;;5.47;100.00
54022;BME280;39936;51.058;17.220;2023-02-24T08:20:02;100664.41;;;5.47;100.00
54022;BME280;39936;51.058;17.220;2023-02-24T08:24:04;100654.86;;;5.48;100.00
54022;BME280;39936;51.058;17.220;2023-02-24T08:27:50;100636.33;;;5.47;100.00
54022;BME280;39936;51.058;17.220;2023-02-24T08:31:19;100648.91;;;5.64;100.00
54022;BME280;39936;51.058;17.220;2023-02-24T08:35:13;100609.50;;;5.47;100.00
54022;BME280;39936;51.058;17.220;2023-02-24T08:38:32;100609.16;;;5.49;100.00
54022;BME280;39936;51.058;17.220;2023-02-24T08:42:10;100637.29;;;5.73;100.00
54022;BME280;39936;51.058;17.220;2023-02-24T08:45:30;100637.15;;;5.77;100.00
54022;BME280;39936;51.058;17.220;2023-02-24T08:49:12;100632.91;;;5.84;100.00
54022;BME280;39936;51.058;17.220;2023-02-24T08:52:34;100625.09;;;5.80;100.00
54022;BME280;39936;51.058;17.220;2023-02-24T08:56:08;100625.47;;;5.77;100.00
54022;BME280;39936;51.058;17.220;2023-02-24T08:59:30;100625.66;;;5.78;100.00
54022;BME280;39936;51.058;17.220;2023-02-24T09:03:08;100626.57;;;5.74;100.00
54022;BME280;39936;51.058;17.220;2023-02-24T09:07:01;100619.73;;;5.78;100.00
54022;BME280;39936;51.058;17.220;2023-02-24T09:11:14;100612.41;;;5.85;100.00
54022;BME280;39936;51.058;17.220;2023-02-24T09:15:02;100609.38;;;5.91;100.00
54022;BME280;39936;51.058;17.220;2023-02-24T09:18:30;100602.64;;;5.96;100.00
54022;BME280;39936;51.058;17.220;2023-02-24T09:22:25;100572.52;;;5.82;100.00
54022;BME280;39936;51.058;17.220;2023-02-24T09:29:57;100594.31;;;6.11;100.00
54022;BME280;39936;51.058;17.220;2023-02-24T09:33:55;100595.92;;;6.13;100.00
54022;BME280;39936;51.058;17.220;2023-02-24T09:38:04;100593.80;;;6.14;100.00
54022;BME280;39936;51.058;17.220;2023-02-24T09:45:19;100579.44;;;6.10;100.00
54022;BME280;39936;51.058;17.220;2023-02-24T09:49:32;100577.02;;;6.06;100.00
54022;BME280;39936;51.058;17.220;2023-02-24T09:53:09;100570.37;;;6.03;100.00
54022;BME280;39936;51.058;17.220;2023-02-24T09:57:12;100565.41;;;6.02;100.00
54022;BME280;39936;51.058;17.220;2023-02-24T10:08:35;100559.16;;;5.99;100.00
54022;BME280;39936;51.058;17.220;2023-02-24T10:12:22;100557.59;;;5.92;100.00
54022;BME280;39936;51.058;17.220;2023-02-24T10:16:03;100552.01;;;5.86;100.00
54022;BME280;39936;51.058;17.220;2023-02-24T10:19:59;100551.36;;;5.89;100.00
54022;BME280;39936;51.058;17.220;2023-02-24T10:24:24;100545.60;;;5.96;100.00
54022;BME280;39936;51.058;17.220;2023-02-24T10:28:27;100536.96;;;6.02;100.00
54022;BME280;39936;51.058;17.220;2023-02-24T10:32:59;100525.91;;;6.01;100.00
54022;BME280;39936;51.058;17.220;2023-02-24T10:44:29;100506.51;;;6.02;100.00
54022;BME280;39936;51.058;17.220;2023-02-24T10:48:14;100493.66;;;6.00;100.00
54022;BME280;39936;51.058;17.220;2023-02-24T10:51:51;100471.80;;;5.80;100.00
54022;BME280;39936;51.058;17.220;2023-02-24T10:55:26;100508.98;;;5.71;100.00
54022;BME280;39936;51.058;17.220;2023-02-24T10:59:29;100502.69;;;5.49;100.00
54022;BME280;39936;51.058;17.220;2023-02-24T11:03:09;100502.58;;;5.38;100.00
54022;BME280;39936;51.058;17.220;2023-02-24T11:10:40;100490.09;;;5.27;100.00
54022;BME280;39936;51.058;17.220;2023-02-24T11:14:20;100474.91;;;5.26;100.00
54022;BME280;39936;51.058;17.220;2023-02-24T11:18:26;100453.86;;;5.24;100.00
54022;BME280;39936;51.058;17.220;2023-02-24T11:21:46;100447.71;;;5.33;100.00
54022;BME280;39936;51.058;17.220;2023-02-24T11:25:07;100426.97;;;5.34;100.00
54022;BME280;39936;51.058;17.220;2023-02-24T11:36:20;100400.56;;;5.80;100.00
54022;BME280;39936;51.058;17.220;2023-02-24T11:43:22;100387.55;;;6.22;100.00
54022;BME280;39936;51.058;17.220;2023-02-24T11:47:15;100391.32;;;6.37;100.00
54022;BME280;39936;51.058;17.220;2023-02-24T11:51:22;100366.11;;;6.21;100.00
54022;BME280;39936;51.058;17.220;2023-02-24T11:55:27;100383.00;;;6.25;100.00
54022;BME280;39936;51.058;17.220;2023-02-24T11:59:19;100384.91;;;6.20;100.00
54022;BME280;39936;51.058;17.220;2023-02-24T12:03:00;100365.22;;;6.00;100.00
54022;BME280;39936;51.058;17.220;2023-02-24T12:06:45;100378.43;;;6.12;100.00
54022;BME280;39936;51.058;17.220;2023-02-24T12:18:49;100350.22;;;5.91;100.00
54022;BME280;39936;51.058;17.220;2023-02-24T12:22:14;100354.71;;;6.04;100.00
54022;BME280;39936;51.058;17.220;2023-02-24T12:25:46;100348.74;;;6.02;100.00
54022;BME280;39936;51.058;17.220;2023-02-24T12:45:18;100312.66;;;6.44;100.00
54022;BME280;39936;51.058;17.220;2023-02-24T12:56:14;100281.86;;;6.54;100.00
54022;BME280;39936;51.058;17.220;2023-02-24T12:59:38;100272.06;;;6.64;100.00
54022;BME280;39936;51.058;17.220;2023-02-24T13:03:22;100271.81;;;6.82;100.00
54022;BME280;39936;51.058;17.220;2023-02-24T13:06:49;100267.70;;;6.97;100.00
54022;BME280;39936;51.058;17.220;2023-02-24T13:11:28;100258.88;;;7.09;100.00
54022;BME280;39936;51.058;17.220;2023-02-24T13:15:23;100255.59;;;7.18;100.00
54022;BME280;39936;51.058;17.220;2023-02-24T13:19:29;100245.14;;;7.11;100.00
54022;BME280;39936;51.058;17.220;2023-02-24T13:22:48;100252.29;;;6.90;100.00
54022;BME280;39936;51.058;17.220;2023-02-24T13:27:22;100235.40;;;6.90;100.00
54022;BME280;39936;51.058;17.220;2023-02-24T13:30:44;100214.82;;;6.98;100.00
54022;BME280;39936;51.058;17.220;2023-02-24T13:35:27;100218.53;;;7.11;100.00
54022;BME280;39936;51.058;17.220;2023-02-24T13:38:49;100207.10;;;7.14;100.00
54022;BME280;39936;51.058;17.220;2023-02-24T13:46:20;100197.02;;;7.19;100.00
54022;BME280;39936;51.058;17.220;2023-02-24T14:01:43;100165.56;;;7.02;95.59
54022;BME280;39936;51.058;17.220;2023-02-24T14:05:31;100159.22;;;7.02;97.13
54022;BME280;39936;51.058;17.220;2023-02-24T14:08:56;100160.35;;;7.05;96.60
54022;BME280;39936;51.058;17.220;2023-02-24T14:12:19;100156.87;;;7.12;97.03
54022;BME280;39936;51.058;17.220;2023-02-24T14:16:16;100148.09;;;7.18;96.98
54022;BME280;39936;51.058;17.220;2023-02-24T14:19:35;100149.27;;;7.19;95.18
54022;BME280;39936;51.058;17.220;2023-02-24T14:23:26;100140.59;;;7.21;95.14
54022;BME280;39936;51.058;17.220;2023-02-24T14:27:26;100150.36;;;7.25;94.16
54022;BME280;39936;51.058;17.220;2023-02-24T14:31:38;100145.49;;;7.25;92.67
54022;BME280;39936;51.058;17.220;2023-02-24T14:35:46;100132.52;;;7.18;94.42
54022;BME280;39936;51.058;17.220;2023-02-24T14:39:58;100105.95;;;6.93;94.52
54022;BME280;39936;51.058;17.220;2023-02-24T14:43:42;100127.11;;;7.10;94.14
54022;BME280;39936;51.058;17.220;2023-02-24T14:47:40;100089.34;;;6.84;94.54
54022;BME280;39936;51.058;17.220;2023-02-24T14:52:09;100125.34;;;7.01;94.90
54022;BME280;39936;51.058;17.220;2023-02-24T14:55:36;100123.80;;;6.90;94.44
54022;BME280;39936;51.058;17.220;2023-02-24T14:59:24;100119.38;;;6.80;93.58
54022;BME280;39936;51.058;17.220;2023-02-24T15:07:17;100113.11;;;6.63;92.98
54022;BME280;39936;51.058;17.220;2023-02-24T15:11:20;100103.41;;;6.54;92.06
54022;BME280;39936;51.058;17.220;2023-02-24T15:18:41;100074.71;;;6.42;93.96
54022;BME280;39936;51.058;17.220;2023-02-24T15:26:27;100075.67;;;6.46;95.64
54022;BME280;39936;51.058;17.220;2023-02-24T15:33:51;100086.39;;;6.28;95.37
54022;BME280;39936;51.058;17.220;2023-02-24T15:37:39;100069.56;;;6.04;94.91
54022;BME280;39936;51.058;17.220;2023-02-24T15:41:20;100089.31;;;6.02;96.00
54022;BME280;39936;51.058;17.220;2023-02-24T15:45:06;100086.38;;;5.86;96.07
54022;BME280;39936;51.058;17.220;2023-02-24T15:48:54;100051.94;;;5.59;95.98
54022;BME280;39936;51.058;17.220;2023-02-24T15:52:35;100064.15;;;5.68;97.02
54022;BME280;39936;51.058;17.220;2023-02-24T15:56:15;100064.13;;;5.70;97.68
54022;BME280;39936;51.058;17.220;2023-02-24T15:59:34;100059.67;;;5.70;98.19
54022;BME280;39936;51.058;17.220;2023-02-24T16:03:14;100054.34;;;5.68;98.77
54022;BME280;39936;51.058;17.220;2023-02-24T16:07:24;100055.38;;;5.70;99.32
54022;BME280;39936;51.058;17.220;2023-02-24T16:10:46;100048.75;;;5.69;99.70
54022;BME280;39936;51.058;17.220;2023-02-24T16:14:30;100041.70;;;5.70;99.99
54022;BME280;39936;51.058;17.220;2023-02-24T16:18:24;100038.59;;;5.70;100.00
54022;BME280;39936;51.058;17.220;2023-02-24T16:22:37;100010.35;;;5.53;100.00
54022;BME280;39936;51.058;17.220;2023-02-24T16:26:18;100034.37;;;5.69;100.00
54022;BME280;39936;51.058;17.220;2023-02-24T16:33:32;99982.05;;;5.06;100.00
54022;BME280;39936;51.058;17.220;2023-02-24T16:37:21;100020.04;;;5.23;100.00
54022;BME280;39936;51.058;17.220;2023-02-24T16:41:06;100013.37;;;5.18;100.00
54022;BME280;39936;51.058;17.220;2023-02-24T16:45:34;99987.77;;;4.97;100.00
54022;BME280;39936;51.058;17.220;2023-02-24T16:48:57;99998.51;;;5.05;100.00
54022;BME280;39936;51.058;17.220;2023-02-24T16:52:46;100004.80;;;5.13;100.00
54022;BME280;39936;51.058;17.220;2023-02-24T16:56:20;100002.51;;;5.26;100.00
54022;BME280;39936;51.058;17.220;2023-02-24T16:59:56;100005.03;;;5.32;100.00
54022;BME280;39936;51.058;17.220;2023-02-24T17:03:43;100010.20;;;5.24;100.00
54022;BME280;39936;51.058;17.220;2023-02-24T17:07:37;100014.22;;;5.11;100.00
54022;BME280;39936;51.058;17.220;2023-02-24T17:11:20;99996.41;;;4.85;100.00
54022;BME280;39936;51.058;17.220;2023-02-24T17:14:42;100011.58;;;4.90;100.00
54022;BME280;39936;51.058;17.220;2023-02-24T17:18:03;100020.63;;;4.88;100.00
54022;BME280;39936;51.058;17.220;2023-02-24T17:21:52;100013.94;;;4.85;100.00
54022;BME280;39936;51.058;17.220;2023-02-24T17:26:19;100015.35;;;4.85;100.00
54022;BME280;39936;51.058;17.220;2023-02-24T17:29:39;100006.05;;;4.86;100.00
54022;BME280;39936;51.058;17.220;2023-02-24T17:33:44;99999.23;;;4.84;100.00
54022;BME280;39936;51.058;17.220;2023-02-24T17:37:08;99998.70;;;4.80;100.00
54022;BME280;39936;51.058;17.220;2023-02-24T17:40:28;99993.14;;;4.76;100.00
54022;BME280;39936;51.058;17.220;2023-02-24T17:48:20;99989.76;;;4.61;100.00
54022;BME280;39936;51.058;17.220;2023-02-24T17:52:15;99991.41;;;4.45;100.00
54022;BME280;39936;51.058;17.220;2023-02-24T17:56:03;100000.16;;;4.32;100.00
54022;BME280;39936;51.058;17.220;2023-02-24T17:59:54;99998.52;;;4.13;100.00
54022;BME280;39936;51.058;17.220;2023-02-24T18:03:13;99974.33;;;4.04;100.00
54022;BME280;39936;51.058;17.220;2023-02-24T18:06:37;99968.89;;;4.02;100.00
54022;BME280;39936;51.058;17.220;2023-02-24T18:10:18;99969.31;;;3.96;100.00
54022;BME280;39936;51.058;17.220;2023-02-24T18:13:39;99965.83;;;3.86;100.00
54022;BME280;39936;51.058;17.220;2023-02-24T18:17:01;99967.51;;;3.85;100.00
54022;BME280;39936;51.058;17.220;2023-02-24T18:21:05;99956.45;;;3.87;100.00
54022;BME280;39936;51.058;17.220;2023-02-24T18:24:36;99939.42;;;3.87;100.00
54022;BME280;39936;51.058;17.220;2023-02-24T18:28:20;99938.80;;;3.90;100.00
54022;BME280;39936;51.058;17.220;2023-02-24T18:31:39;99930.19;;;3.96;100.00
54022;BME280;39936;51.058;17.220;2023-02-24T18:35:03;99883.15;;;3.77;100.00
54022;BME280;39936;51.058;17.220;2023-02-24T18:38:21;99913.60;;;4.00;100.00
54022;BME280;39936;51.058;17.220;2023-02-24T18:42:06;99907.90;;;4.04;100.00
54022;BME280;39936;51.058;17.220;2023-02-24T18:45:47;99896.82;;;4.02;100.00
54022;BME280;39936;51.058;17.220;2023-02-24T18:50:18;99910.27;;;4.14;100.00
54022;BME280;39936;51.058;17.220;2023-02-24T18:54:19;99906.41;;;4.08;100.00
54022;BME280;39936;51.058;17.220;2023-02-24T18:57:56;99912.05;;;4.04;100.00
54022;BME280;39936;51.058;17.220;2023-02-24T19:04:46;99908.89;;;4.11;100.00
54022;BME280;39936;51.058;17.220;2023-02-24T19:08:10;99894.25;;;3.97;100.00
54022;BME280;39936;51.058;17.220;2023-02-24T19:11:54;99896.15;;;4.01;100.00
54022;BME280;39936;51.058;17.220;2023-02-24T19:15:37;99882.99;;;3.98;100.00
54022;BME280;39936;51.058;17.220;2023-02-24T19:19:17;99880.97;;;4.07;100.00
54022;BME280;39936;51.058;17.220;2023-02-24T19:23:11;99878.75;;;4.15;100.00
54022;BME280;39936;51.058;17.220;2023-02-24T19:30:43;99878.97;;;3.98;100.00
54022;BME280;39936;51.058;17.220;2023-02-24T19:34:09;99874.73;;;3.94;100.00
54022;BME280;39936;51.058;17.220;2023-02-24T19:45:23;99852.99;;;3.76;100.00
54022;BME280;39936;51.058;17.220;2023-02-24T19:48:42;99843.16;;;3.72;100.00
54022;BME280;39936;51.058;17.220;2023-02-24T19:52:09;99840.09;;;3.76;100.00
54022;BME280;39936;51.058;17.220;2023-02-24T19:55:57;99826.24;;;3.72;100.00
54022;BME280;39936;51.058;17.220;2023-02-24T19:59:18;99826.41;;;3.77;100.00
54022;BME280;39936;51.058;17.220;2023-02-24T20:03:27;99827.93;;;3.75;100.00
54022;BME280;39936;51.058;17.220;2023-02-24T20:06:55;99833.08;;;3.72;100.00
54022;BME280;39936;51.058;17.220;2023-02-24T20:10:29;99829.45;;;3.63;100.00
54022;BME280;39936;51.058;17.220;2023-02-24T20:17:37;99814.64;;;3.70;100.00
54022;BME280;39936;51.058;17.220;2023-02-24T20:21:07;99779.01;;;3.46;100.00
54022;BME280;39936;51.058;17.220;2023-02-24T20:24:41;99799.11;;;3.72;100.00
54022;BME280;39936;51.058;17.220;2023-02-24T20:28:21;99768.12;;;3.54;100.00
54022;BME280;39936;51.058;17.220;2023-02-24T20:32:06;99795.20;;;3.77;100.00
54022;BME280;39936;51.058;17.220;2023-02-24T20:36:11;99792.93;;;3.76;100.00
54022;BME280;39936;51.058;17.220;2023-02-24T20:39:27;99782.11;;;3.74;100.00
54022;BME280;39936;51.058;17.220;2023-02-24T20:42:51;99783.16;;;3.73;100.00
54022;BME280;39936;51.058;17.220;2023-02-24T20:46:32;99773.58;;;3.71;100.00
54022;BME280;39936;51.058;17.220;2023-02-24T20:50:33;99773.19;;;3.72;100.00
54022;BME280;39936;51.058;17.220;2023-02-24T20:54:21;99747.47;;;3.53;100.00
54022;BME280;39936;51.058;17.220;2023-02-24T20:58:01;99764.69;;;3.71;100.00
54022;BME280;39936;51.058;17.220;2023-02-24T21:01:53;99760.05;;;3.68;100.00
54022;BME280;39936;51.058;17.220;2023-02-24T21:05:35;99762.28;;;3.74;100.00
54022;BME280;39936;51.058;17.220;2023-02-24T21:09:12;99766.66;;;3.78;100.00
54022;BME280;39936;51.058;17.220;2023-02-24T21:13:15;99763.17;;;3.77;100.00
54022;BME280;39936;51.058;17.220;2023-02-24T21:16:57;99732.09;;;3.64;100.00
54022;BME280;39936;51.058;17.220;2023-02-24T21:20:33;99738.66;;;3.75;100.00
54022;BME280;39936;51.058;17.220;2023-02-24T21:23:54;99732.23;;;3.73;100.00
54022;BME280;39936;51.058;17.220;2023-02-24T21:31:56;99689.29;;;3.39;100.00
54022;BME280;39936;51.058;17.220;2023-02-24T21:35:16;99705.52;;;3.49;100.00
54022;BME280;39936;51.058;17.220;2023-02-24T21:38:45;99705.69;;;3.47;100.00
54022;BME280;39936;51.058;17.220;2023-02-24T21:42:29;99682.76;;;3.31;100.00
54022;BME280;39936;51.058;17.220;2023-02-24T21:45:48;99707.54;;;3.48;100.00
54022;BME280;39936;51.058;17.220;2023-02-24T21:49:11;99703.83;;;3.49;100.00
54022;BME280;39936;51.058;17.220;2023-02-24T21:53:38;99700.47;;;3.49;100.00
54022;BME280;39936;51.058;17.220;2023-02-24T22:01:33;99691.62;;;3.57;100.00
54022;BME280;39936;51.058;17.220;2023-02-24T22:05:48;99691.70;;;3.56;100.00
54022;BME280;39936;51.058;17.220;2023-02-24T22:09:12;99687.95;;;3.55;100.00
54022;BME280;39936;51.058;17.220;2023-02-24T22:13:11;99683.09;;;3.53;100.00
54022;BME280;39936;51.058;17.220;2023-02-24T22:16:54;99682.11;;;3.53;100.00
54022;BME280;39936;51.058;17.220;2023-02-24T22:20:37;99682.58;;;3.55;100.00
54022;BME280;39936;51.058;17.220;2023-02-24T22:24:13;99684.98;;;3.55;100.00
54022;BME280;39936;51.058;17.220;2023-02-24T22:28:01;99681.10;;;3.52;100.00
54022;BME280;39936;51.058;17.220;2023-02-24T22:32:03;99680.68;;;3.51;100.00
54022;BME280;39936;51.058;17.220;2023-02-24T22:35:24;99676.74;;;3.53;100.00
54022;BME280;39936;51.058;17.220;2023-02-24T22:39:06;99675.06;;;3.50;100.00
54022;BME280;39936;51.058;17.220;2023-02-24T22:42:48;99669.06;;;3.53;100.00
54022;BME280;39936;51.058;17.220;2023-02-24T22:46:43;99668.64;;;3.51;100.00
54022;BME280;39936;51.058;17.220;2023-02-24T22:50:37;99676.90;;;3.49;100.00
54022;BME280;39936;51.058;17.220;2023-02-24T22:54:04;99674.08;;;3.47;100.00
54022;BME280;39936;51.058;17.220;2023-02-24T22:57:45;99676.67;;;3.46;100.00
54022;BME280;39936;51.058;17.220;2023-02-24T23:01:08;99668.42;;;3.46;100.00